Time;durP1;ratioP1;P1;durP2;ratioP2;P2;SDS_P1;SDS_P2;PMS_P1;PMS_P2;Temp;Humidity;BMP_temperature;BMP_pressure;BME280_temperature;BME280_humidity;BME280_pressure;Samples;Min_cycle;Max_cycle;Signal;HPM_P1;HPM_P2
2022/12/19 06:56:19;;;;;;;12.17;7.83;;;;;;;;;;10630510;27;20783;-81
2022/12/19 07:01:40;;;;;;;11.25;6.85;;;;;;;;;;10612021;28;20501;-81
2022/12/19 07:06:41;;;;;;;12.55;8.63;;;;;;;;;;10581892;28;20035;-81
2022/12/19 07:11:42;;;;;;;;;;;;;;;;;;10612508;28;20415;-81
2022/12/19 07:16:43;;;;;;;9.27;6.63;;;;;;;;;;10613971;28;19903;-82
2022/12/19 07:21:44;;;;;;;9.02;6.07;;;;;;;;;;10615732;28;20034;-81
2022/12/19 07:26:45;;;;;;;12.77;8.85;;;;;;;;;;10634470;28;20028;-81
2022/12/19 07:31:46;;;;;;;8.63;5.95;;;;;;;;;;10633512;28;20102;-81
2022/12/19 07:36:50;;;;;;;8.65;6.03;;;;;;;;;;10620561;28;20028;-80
2022/12/19 07:41:51;;;;;;;12.90;8.30;;;;;;;;;;10624642;28;20087;-80
2022/12/19 07:46:53;;;;;;;9.70;7.07;;;;;;;;;;10626723;28;20128;-81
2022/12/19 07:51:54;;;;;;;8.27;5.97;;;;;;;;;;10644069;28;20358;-81
2022/12/19 07:56:55;;;;;;;7.38;5.57;;;;;;;;;;10625219;28;20204;-80
2022/12/19 08:01:57;;;;;;;5.55;4.00;;;;;;;;;;10649808;28;20124;-79
2022/12/19 08:06:58;;;;;;;5.97;3.92;;;;;;;;;;10592435;28;20039;-81
2022/12/19 08:11:59;;;;;;;8.00;4.38;;;;;;;;;;10588584;28;20028;-82
2022/12/19 08:17:00;;;;;;;7.15;5.13;;;;;;;;;;10591148;28;20057;-80
2022/12/19 08:22:01;;;;;;;9.93;7.95;;;;;;;;;;10597118;28;20090;-79
2022/12/19 08:27:02;;;;;;;10.50;7.47;;;;;;;;;;10597087;28;20427;-80
2022/12/19 08:32:03;;;;;;;6.55;5.15;;;;;;;;;;10598416;28;20392;-80
2022/12/19 08:37:04;;;;;;;8.07;6.10;;;;;;;;;;10617455;28;20020;-80
2022/12/19 08:42:05;;;;;;;11.13;8.32;;;;;;;;;;10614723;28;20527;-79
2022/12/19 08:47:06;;;;;;;10.10;7.47;;;;;;;;;;10600991;28;20038;-81
2022/12/19 08:52:08;;;;;;;8.13;6.03;;;;;;;;;;10601887;28;20055;-80
2022/12/19 08:57:09;;;;;;;9.38;6.70;;;;;;;;;;10597932;28;20481;-80
2022/12/19 09:02:10;;;;;;;8.50;6.38;;;;;;;;;;10596797;28;20035;-79
2022/12/19 09:07:12;;;;;;;8.65;6.63;;;;;;;;;;10613710;28;20019;-82
2022/12/19 09:12:14;;;;;;;10.43;7.47;;;;;;;;;;10612672;28;20051;-79
2022/12/19 09:17:15;;;;;;;7.25;5.55;;;;;;;;;;10593083;28;20024;-79
2022/12/19 09:22:16;;;;;;;6.38;5.05;;;;;;;;;;10614282;28;20474;-79
2022/12/19 09:27:17;;;;;;;8.02;4.95;;;;;;;;;;10614130;28;20016;-81
2022/12/19 09:32:18;;;;;;;8.98;6.60;;;;;;;;;;10593961;28;20027;-82
2022/12/19 09:37:19;;;;;;;7.35;5.07;;;;;;;;;;10617111;28;20028;-80
2022/12/19 09:42:29;;;;;;;8.20;4.95;;;;;;;;;;10617197;28;20020;-79
2022/12/19 09:47:31;;;;;;;7.95;6.38;;;;;;;;;;10601454;28;20028;-79
2022/12/19 09:52:35;;;;;;;10.35;7.45;;;;;;;;;;10600012;28;20044;-79
2022/12/19 09:57:41;;;;;;;8.70;6.25;;;;;;;;;;10600007;28;20039;-79
2022/12/19 10:02:48;;;;;;;10.43;5.95;;;;;;;;;;10596409;28;20054;-80
2022/12/19 10:07:50;;;;;;;10.15;6.63;;;;;;;;;;10594977;28;20020;-80
2022/12/19 10:12:54;;;;;;;8.25;6.38;;;;;;;;;;10612242;28;20024;-81
2022/12/19 10:17:55;;;;;;;7.22;5.50;;;;;;;;;;10613266;28;20043;-80
2022/12/19 10:22:56;;;;;;;8.68;7.13;;;;;;;;;;10616630;28;20092;-81
2022/12/19 10:27:57;;;;;;;8.60;5.97;;;;;;;;;;10597428;28;20027;-80
2022/12/19 10:33:01;;;;;;;6.13;4.72;;;;;;;;;;10590013;28;20049;-79
2022/12/19 10:38:02;;;;;;;10.27;5.88;;;;;;;;;;10612440;28;20077;-80
2022/12/19 10:43:12;;;;;;;7.05;5.43;;;;;;;;;;10595113;28;20024;-80
2022/12/19 10:48:18;;;;;;;7.40;5.18;;;;;;;;;;10594832;28;20028;-81
2022/12/19 10:53:26;;;;;;;7.55;5.43;;;;;;;;;;10589229;28;20067;-79
2022/12/19 10:58:41;;;;;;;9.40;4.05;;;;;;;;;;10586190;28;20027;-80
2022/12/19 11:03:44;;;;;;;11.20;8.07;;;;;;;;;;10592299;28;20032;-79
2022/12/19 11:08:45;;;;;;;11.57;6.75;;;;;;;;;;10596770;28;20020;-81
2022/12/19 11:13:47;;;;;;;9.10;6.35;;;;;;;;;;10615375;28;20047;-80
2022/12/19 11:18:48;;;;;;;8.60;6.40;;;;;;;;;;10592825;28;20038;-80
2022/12/19 11:23:49;;;;;;;;;;;;;;;;;;10597367;28;20053;-81
2022/12/19 11:28:51;;;;;;;8.27;5.88;;;;;;;;;;10594105;28;19904;-81
2022/12/19 11:33:52;;;;;;;;;;;;;;;;;;10597653;28;20020;-78
2022/12/19 11:38:53;;;;;;;7.68;6.07;;;;;;;;;;10604102;28;20388;-80
2022/12/19 11:44:17;;;;;;;9.27;6.32;;;;;;;;;;10617078;28;20111;-79
2022/12/19 11:49:29;;;;;;;8.18;5.97;;;;;;;;;;10575829;28;20043;-80
2022/12/19 11:54:34;;;;;;;7.88;4.70;;;;;;;;;;10600841;28;20031;-84
2022/12/19 11:59:36;;;;;;;9.35;7.10;;;;;;;;;;10614172;28;20019;-81
2022/12/19 12:04:45;;;;;;;9.63;6.60;;;;;;;;;;10580787;28;20019;-81
2022/12/19 12:09:49;;;;;;;7.82;5.93;;;;;;;;;;10583982;28;20038;-83
2022/12/19 12:15:09;;;;;;;8.50;6.20;;;;;;;;;;10583337;28;20488;-83
2022/12/19 12:20:30;;;;;;;6.65;4.88;;;;;;;;;;10582649;28;20047;-80
2022/12/19 12:25:44;;;;;;;6.65;4.70;;;;;;;;;;10585773;28;20080;-82
2022/12/19 12:30:55;;;;;;;9.20;5.32;;;;;;;;;;10594913;28;20048;-83
2022/12/19 12:36:05;;;;;;;7.10;4.90;;;;;;;;;;10607515;28;20104;-83
2022/12/19 12:41:16;;;;;;;5.47;4.35;;;;;;;;;;10607428;28;20036;-83
2022/12/19 12:46:26;;;;;;;8.25;6.25;;;;;;;;;;10589754;28;20072;-84
2022/12/19 12:51:28;;;;;;;8.63;6.05;;;;;;;;;;10608767;28;20084;-83
2022/12/19 12:56:42;;;;;;;8.30;5.93;;;;;;;;;;10592873;28;20039;-82
2022/12/19 13:01:43;;;;;;;7.50;5.43;;;;;;;;;;10598463;28;20023;-81
2022/12/19 13:06:50;;;;;;;5.75;3.83;;;;;;;;;;10607939;28;20064;-82
2022/12/19 13:17:22;;;;;;;7.18;5.30;;;;;;;;;;10622296;28;20031;-84
2022/12/19 13:22:30;;;;;;;8.60;6.47;;;;;;;;;;10604484;28;20103;-82
2022/12/19 13:27:32;;;;;;;9.25;5.25;;;;;;;;;;10606070;28;20035;-81
2022/12/19 13:32:53;;;;;;;6.15;4.70;;;;;;;;;;10607306;28;20033;-81
2022/12/19 13:38:00;;;;;;;7.68;5.07;;;;;;;;;;10624606;28;20043;-82
2022/12/19 13:48:45;;;;;;;7.75;5.18;;;;;;;;;;10600434;28;20055;-83
2022/12/19 13:53:46;;;;;;;9.38;5.85;;;;;;;;;;10581638;28;20035;-83
2022/12/19 13:58:53;;;;;;;7.68;4.40;;;;;;;;;;10581456;28;20034;-83
2022/12/19 14:03:55;;;;;;;7.32;5.30;;;;;;;;;;10603533;28;20385;-85
2022/12/19 14:09:02;;;;;;;6.20;4.68;;;;;;;;;;10584426;28;20028;-83
2022/12/19 14:19:24;;;;;;;9.77;7.25;;;;;;;;;;10617967;28;20032;-83
2022/12/19 14:24:25;;;;;;;7.82;5.43;;;;;;;;;;10581218;28;20050;-81
2022/12/19 14:29:35;;;;;;;7.15;4.53;;;;;;;;;;10583804;28;20080;-83
2022/12/19 14:34:36;;;;;;;6.05;3.80;;;;;;;;;;10584801;28;20032;-85
2022/12/19 14:39:37;;;;;;;6.55;4.47;;;;;;;;;;10584711;28;20031;-82
2022/12/19 14:44:38;;;;;;;;;;;;;;;;;;10605409;28;20092;-83
2022/12/19 14:49:39;;;;;;;6.15;4.38;;;;;;;;;;10584222;28;20006;-84
2022/12/19 14:54:40;;;;;;;6.10;3.95;;;;;;;;;;10581480;28;20123;-83
2022/12/19 14:59:50;;;;;;;9.00;4.38;;;;;;;;;;10579184;28;20110;-88
2022/12/19 15:05:08;;;;;;;8.45;5.32;;;;;;;;;;10581027;28;20115;-85
2022/12/19 15:10:09;;;;;;;7.65;5.03;;;;;;;;;;10585101;28;20082;-84
2022/12/19 15:15:25;;;;;;;7.80;4.82;;;;;;;;;;10590991;28;20104;-83
2022/12/19 15:20:26;;;;;;;7.47;5.47;;;;;;;;;;10600690;28;20042;-84
2022/12/19 15:25:27;;;;;;;7.28;4.40;;;;;;;;;;10621341;28;20031;-81
2022/12/19 15:30:30;;;;;;;6.97;4.88;;;;;;;;;;10639174;28;20015;-82
2022/12/19 15:35:32;;;;;;;7.90;5.28;;;;;;;;;;10620650;28;20554;-84
2022/12/19 15:40:33;;;;;;;7.82;5.13;;;;;;;;;;10595971;28;20031;-80
2022/12/19 15:45:34;;;;;;;6.82;5.25;;;;;;;;;;10610934;28;20020;-80
2022/12/19 15:50:35;;;;;;;6.50;4.05;;;;;;;;;;10609980;28;20103;-82
2022/12/19 15:55:38;;;;;;;6.45;5.03;;;;;;;;;;10590281;28;20134;-82
2022/12/19 16:00:40;;;;;;;6.43;3.95;;;;;;;;;;10606770;28;20045;-83
2022/12/19 16:05:41;;;;;;;7.13;5.32;;;;;;;;;;10587110;28;20103;-81
2022/12/19 16:10:43;;;;;;;6.72;4.93;;;;;;;;;;10583727;28;20016;-83
2022/12/19 16:15:44;;;;;;;6.57;4.85;;;;;;;;;;10605720;28;20026;-82
2022/12/19 16:20:45;;;;;;;;;;;;;;;;;;10585931;28;20035;-83
2022/12/19 16:25:51;;;;;;;6.07;3.92;;;;;;;;;;10587477;28;19915;-83
2022/12/19 16:30:52;;;;;;;5.07;3.90;;;;;;;;;;10605445;28;20079;-82
2022/12/19 16:35:54;;;;;;;7.75;4.40;;;;;;;;;;10602348;28;20023;-80
2022/12/19 16:40:56;;;;;;;5.53;3.92;;;;;;;;;;10632382;28;20443;-78
2022/12/19 16:45:58;;;;;;;5.13;3.85;;;;;;;;;;10612428;28;20038;-81
2022/12/19 16:51:00;;;;;;;6.35;3.70;;;;;;;;;;10580809;28;20073;-81
2022/12/19 16:56:02;;;;;;;5.22;3.40;;;;;;;;;;10580052;28;20055;-81
2022/12/19 17:01:03;;;;;;;5.00;3.60;;;;;;;;;;10582275;28;20038;-80
2022/12/19 17:06:04;;;;;;;4.88;3.25;;;;;;;;;;10593324;28;20055;-79
2022/12/19 17:11:06;;;;;;;4.95;3.80;;;;;;;;;;10590169;28;20047;-82
2022/12/19 17:16:07;;;;;;;3.47;2.55;;;;;;;;;;10600458;28;20031;-82
2022/12/19 17:21:08;;;;;;;;;;;;;;;;;;10589147;28;20028;-83
2022/12/19 17:26:09;;;;;;;7.05;3.17;;;;;;;;;;10606310;28;20293;-82
2022/12/19 17:31:16;;;;;;;5.82;3.55;;;;;;;;;;10589275;28;20043;-82
2022/12/19 17:36:18;;;;;;;5.60;3.80;;;;;;;;;;10582459;28;20050;-82
2022/12/19 17:41:19;;;;;;;4.97;3.13;;;;;;;;;;10602858;28;20094;-81
2022/12/19 17:46:21;;;;;;;6.38;4.45;;;;;;;;;;10586514;28;20050;-81
2022/12/19 17:51:23;;;;;;;5.93;3.60;;;;;;;;;;10605485;28;20031;-81
2022/12/19 17:56:24;;;;;;;5.55;3.50;;;;;;;;;;10588693;28;20031;-80
2022/12/19 18:01:25;;;;;;;5.00;3.97;;;;;;;;;;10608430;28;20031;-82
2022/12/19 18:06:26;;;;;;;5.18;3.28;;;;;;;;;;10607559;28;20076;-80
2022/12/19 18:11:27;;;;;;;5.60;3.67;;;;;;;;;;10608430;28;20069;-81
2022/12/19 18:16:29;;;;;;;6.25;4.22;;;;;;;;;;10593528;28;20116;-80
2022/12/19 18:21:30;;;;;;;5.53;4.47;;;;;;;;;;10611351;28;20030;-80
2022/12/19 18:26:31;;;;;;;5.47;3.70;;;;;;;;;;10594099;28;20024;-81
2022/12/19 18:31:37;;;;;;;4.40;2.95;;;;;;;;;;10613306;28;20019;-81
2022/12/19 18:36:39;;;;;;;4.25;2.90;;;;;;;;;;10611975;28;20073;-82
2022/12/19 18:41:40;;;;;;;3.65;2.85;;;;;;;;;;10600842;28;20020;-80
2022/12/19 18:46:41;;;;;;;4.95;3.40;;;;;;;;;;10605384;28;20453;-80
2022/12/19 18:51:43;;;;;;;;;;;;;;;;;;10592116;28;20454;-80
2022/12/19 18:56:44;;;;;;;4.75;3.33;;;;;;;;;;10605672;28;19904;-80
2022/12/19 19:01:46;;;;;;;5.90;3.67;;;;;;;;;;10586178;28;20409;-81
2022/12/19 19:06:50;;;;;;;6.00;3.47;;;;;;;;;;10586540;28;20034;-82
2022/12/19 19:11:51;;;;;;;5.57;3.88;;;;;;;;;;10575289;28;20487;-80
2022/12/19 19:16:52;;;;;;;;;;;;;;;;;;10584285;28;20019;-80
2022/12/19 19:21:53;;;;;;;4.60;2.90;;;;;;;;;;10585132;28;19911;-83
2022/12/19 19:27:27;;;;;;;5.88;3.88;;;;;;;;;;10584133;28;20020;-80
2022/12/19 19:32:22;;;;;;;4.15;2.70;;;;;;;;;;10606303;28;20028;-80
2022/12/19 19:37:23;;;;;;;;;;;;;;;;;;10581956;28;20020;-80
2022/12/19 19:42:28;;;;;;;6.05;3.75;;;;;;;;;;10584766;28;19911;-82
2022/12/19 19:47:59;;;;;;;;;;;;;;;;;;;;;
2022/12/19 19:58:23;;;;;;;5.25;3.42;;;;;;;;;;10623507;28;20035;-81
2022/12/19 20:03:24;;;;;;;4.07;3.00;;;;;;;;;;10596052;28;20020;-80
2022/12/19 20:08:25;;;;;;;;;;;;;;;;;;10599273;28;20052;-81
2022/12/19 20:13:29;;;;;;;5.53;4.25;;;;;;;;;;10614118;28;19907;-81
2022/12/19 20:18:30;;;;;;;4.70;3.33;;;;;;;;;;10622781;28;20012;-81
